createdAt,value
2023-05-12T00:01:59.160Z,100283.19
2023-05-12T00:04:26.011Z,100284.56
2023-05-12T00:06:52.848Z,100288.03
2023-05-12T00:09:19.505Z,100289.69
2023-05-12T00:11:48.359Z,100284.06
2023-05-12T00:14:15.076Z,100282.06
2023-05-12T00:16:41.764Z,100276.88
2023-05-12T00:19:08.806Z,100285.22
2023-05-12T00:21:36.092Z,100283.63
2023-05-12T00:24:02.724Z,100283.59
2023-05-12T00:26:29.568Z,100284.66
2023-05-12T00:28:56.092Z,100284.63
2023-05-12T00:31:22.651Z,100275.94
2023-05-12T00:33:49.339Z,100282.09
2023-05-12T00:36:15.974Z,100281.47
2023-05-12T00:38:42.639Z,100276.13
2023-05-12T00:41:09.169Z,100275.13
2023-05-12T00:43:35.859Z,100276.84
2023-05-12T00:46:05.403Z,100266.03
2023-05-12T00:48:32.835Z,100269.88
2023-05-12T00:51:01.182Z,100268.56
2023-05-12T00:53:34.948Z,100266.03
2023-05-12T00:56:08.842Z,100261.09
2023-05-12T00:58:35.744Z,100267.09
2023-05-12T01:01:02.631Z,100264.81
2023-05-12T01:03:30.823Z,100260.31
2023-05-12T01:06:12.447Z,100261.47
2023-05-12T01:08:39.275Z,100269.03
2023-05-12T01:11:06.380Z,100275.25
2023-05-12T01:13:33.524Z,100270.66
2023-05-12T01:16:02.946Z,100271.19
2023-05-12T01:18:33.554Z,100279.50
2023-05-12T01:21:01.456Z,100279.72
2023-05-12T01:23:35.363Z,100283.41
2023-05-12T01:26:11.701Z,100291.28
2023-05-12T01:28:41.614Z,100292.72
2023-05-12T01:31:09.200Z,100296.28
2023-05-12T01:33:36.818Z,100294.41
2023-05-12T01:36:03.598Z,100300.81
2023-05-12T01:38:30.475Z,100305.63
2023-05-12T01:40:57.218Z,100302.44
2023-05-12T01:43:23.831Z,100308.81
2023-05-12T01:45:50.343Z,100302.03
2023-05-12T01:48:17.073Z,100306.03
2023-05-12T01:50:43.652Z,100305.25
2023-05-12T01:53:10.655Z,100315.28
2023-05-12T01:55:37.377Z,100312.69
2023-05-12T01:58:04.313Z,100302.34
2023-05-12T02:00:30.870Z,100317.16
2023-05-12T02:02:57.545Z,100316.34
2023-05-12T02:05:24.244Z,100321.25
2023-05-12T02:07:51.107Z,100318.81
2023-05-12T02:10:18.549Z,100318.00
2023-05-12T02:12:46.685Z,100316.09
2023-05-12T02:15:13.354Z,100314.31
2023-05-12T02:17:39.967Z,100326.97
2023-05-12T02:20:07.336Z,100327.94
2023-05-12T02:22:34.290Z,100317.41
2023-05-12T02:25:01.113Z,100331.69
2023-05-12T02:27:27.674Z,100330.66
2023-05-12T02:29:54.235Z,100333.75
2023-05-12T02:32:21.632Z,100335.06
2023-05-12T02:34:48.389Z,100333.06
2023-05-12T02:37:15.138Z,100342.53
2023-05-12T02:39:41.675Z,100335.00
2023-05-12T02:42:08.211Z,100332.53
2023-05-12T02:44:34.696Z,100334.44
2023-05-12T02:47:01.562Z,100335.13
2023-05-12T02:49:28.157Z,100329.47
2023-05-12T02:51:55.554Z,100328.00
2023-05-12T02:54:22.160Z,100328.50
2023-05-12T02:56:48.799Z,100334.22
2023-05-12T02:59:15.318Z,100336.16
2023-05-12T03:01:42.036Z,100333.94
2023-05-12T03:04:08.835Z,100331.63
2023-05-12T03:06:35.425Z,100330.16
2023-05-12T03:09:02.397Z,100332.03
2023-05-12T03:11:29.019Z,100335.81
2023-05-12T03:13:55.556Z,100333.16
2023-05-12T03:16:22.248Z,100340.69
2023-05-12T03:18:49.383Z,100332.41
2023-05-12T03:21:15.990Z,100337.75
2023-05-12T03:23:42.502Z,100336.13
2023-05-12T03:26:09.185Z,100334.72
2023-05-12T03:28:35.869Z,100337.34
2023-05-12T03:31:02.553Z,100338.47
2023-05-12T03:33:30.129Z,100341.44
2023-05-12T03:35:56.785Z,100341.84
2023-05-12T03:38:23.464Z,100341.53
2023-05-12T03:40:52.862Z,100330.19
2023-05-12T03:43:19.659Z,100330.13
2023-05-12T03:45:46.214Z,100337.75
2023-05-12T03:48:12.911Z,100333.94
2023-05-12T03:50:39.412Z,100330.91
2023-05-12T03:53:06.056Z,100328.56
2023-05-12T03:55:32.772Z,100321.63
2023-05-12T03:57:59.475Z,100332.69
2023-05-12T04:00:26.098Z,100320.94
2023-05-12T04:02:52.833Z,100328.28
2023-05-12T04:05:19.590Z,100331.66
2023-05-12T04:07:46.128Z,100340.44
2023-05-12T04:10:12.660Z,100336.28
2023-05-12T04:12:39.379Z,100340.44
2023-05-12T04:15:06.822Z,100332.31
2023-05-12T04:17:33.924Z,100340.06
2023-05-12T04:20:00.617Z,100347.28
2023-05-12T04:22:27.120Z,100349.84
2023-05-12T04:24:53.708Z,100353.34
2023-05-12T04:27:20.451Z,100351.53
2023-05-12T04:29:47.059Z,100354.16
2023-05-12T04:32:13.765Z,100350.41
2023-05-12T04:34:40.445Z,100354.16
2023-05-12T04:37:07.048Z,100358.59
2023-05-12T04:39:33.707Z,100362.13
2023-05-12T04:42:01.958Z,100364.50
2023-05-12T04:44:28.540Z,100361.53
2023-05-12T04:46:56.494Z,100353.53
2023-05-12T04:49:23.211Z,100363.19
2023-05-12T04:51:49.817Z,100360.75
2023-05-12T04:54:16.419Z,100376.34
2023-05-12T04:56:43.246Z,100367.28
2023-05-12T04:59:09.834Z,100374.44
2023-05-12T05:01:36.415Z,100374.66
2023-05-12T05:04:03.467Z,100373.72
2023-05-12T05:06:30.851Z,100379.75
2023-05-12T05:08:57.494Z,100387.28
2023-05-12T05:11:25.022Z,100383.47
2023-05-12T05:13:51.690Z,100384.22
2023-05-12T05:16:18.306Z,100384.69
2023-05-12T05:18:47.757Z,100394.41
2023-05-12T05:21:15.789Z,100391.09
2023-05-12T05:23:42.596Z,100400.13
2023-05-12T05:26:10.096Z,100399.16
2023-05-12T05:28:37.534Z,100401.75
2023-05-12T05:31:04.377Z,100400.28
2023-05-12T05:33:31.378Z,100393.94
2023-05-12T05:35:58.088Z,100410.00
2023-05-12T05:38:24.673Z,100406.31
2023-05-12T05:40:54.131Z,100418.13
2023-05-12T05:43:21.587Z,100411.44
2023-05-12T05:45:50.155Z,100411.13
2023-05-12T05:48:17.349Z,100409.94
2023-05-12T05:50:44.239Z,100414.91
2023-05-12T05:53:10.954Z,100411.06
2023-05-12T05:55:38.682Z,100407.38
2023-05-12T05:58:06.085Z,100418.88
2023-05-12T06:00:32.736Z,100427.25
2023-05-12T06:02:59.466Z,100424.59
2023-05-12T06:05:26.213Z,100423.78
2023-05-12T06:07:52.865Z,100431.84
2023-05-12T06:10:19.909Z,100430.97
2023-05-12T06:12:46.701Z,100441.69
2023-05-12T06:15:13.720Z,100436.75
2023-05-12T06:17:40.515Z,100443.31
2023-05-12T06:20:07.926Z,100447.13
2023-05-12T06:22:37.643Z,100447.91
2023-05-12T06:25:04.449Z,100448.97
2023-05-12T06:27:31.249Z,100451.34
2023-05-12T06:29:57.860Z,100448.25
2023-05-12T06:32:24.564Z,100451.69
2023-05-12T06:34:51.678Z,100453.25
2023-05-12T06:37:19.461Z,100449.41
2023-05-12T06:39:47.195Z,100453.19
2023-05-12T06:42:14.262Z,100456.28
2023-05-12T06:44:42.535Z,100454.41
2023-05-12T06:47:11.019Z,100451.72
2023-05-12T06:49:38.672Z,100458.59
2023-05-12T06:52:06.770Z,100461.63
2023-05-12T06:54:33.661Z,100459.34
2023-05-12T06:57:00.409Z,100462.41
2023-05-12T06:59:27.015Z,100454.03
2023-05-12T07:01:53.653Z,100450.16
2023-05-12T07:04:21.746Z,100460.09
2023-05-12T07:06:48.389Z,100460.47
2023-05-12T07:09:15.049Z,100459.75
2023-05-12T07:11:41.944Z,100465.47
2023-05-12T07:14:08.529Z,100470.84
2023-05-12T07:16:36.066Z,100476.91
2023-05-12T07:19:02.870Z,100460.13
2023-05-12T07:21:29.898Z,100464.72
2023-05-12T07:23:57.007Z,100472.69
2023-05-12T07:26:24.352Z,100472.69
2023-05-12T07:28:50.909Z,100471.97
2023-05-12T07:31:17.503Z,100470.78
2023-05-12T07:33:44.846Z,100482.97
2023-05-12T07:36:12.844Z,100486.88
2023-05-12T07:38:40.851Z,100486.06
2023-05-12T07:41:07.855Z,100481.13
2023-05-12T07:43:34.531Z,100487.59
2023-05-12T07:46:03.421Z,100476.84
2023-05-12T07:48:31.310Z,100474.19
2023-05-12T07:50:58.895Z,100471.53
2023-05-12T07:53:25.853Z,100468.91
2023-05-12T07:55:52.488Z,100478.84
2023-05-12T07:58:19.551Z,100479.97
2023-05-12T08:00:46.256Z,100471.97
2023-05-12T08:03:13.889Z,100474.94
2023-05-12T08:05:40.520Z,100476.84
2023-05-12T08:08:07.449Z,100469.97
2023-05-12T08:10:34.296Z,100473.97
2023-05-12T08:13:01.025Z,100475.97
2023-05-12T08:15:27.874Z,100471.38
2023-05-12T08:17:54.486Z,100471.41
2023-05-12T08:20:21.460Z,100473.66
2023-05-12T08:22:48.326Z,100465.03
2023-05-12T08:25:15.044Z,100467.44
2023-05-12T08:27:41.802Z,100461.22
2023-05-12T08:30:09.864Z,100468.00
2023-05-12T08:32:36.732Z,100460.66
2023-05-12T08:35:04.870Z,100463.22
2023-05-12T08:37:34.258Z,100456.78
2023-05-12T08:40:01.732Z,100467.34
2023-05-12T08:42:43.707Z,100462.16
2023-05-12T08:45:13.867Z,100452.81
2023-05-12T08:47:41.722Z,100465.75
2023-05-12T08:50:10.070Z,100461.78
2023-05-12T08:52:36.770Z,100459.91
2023-05-12T08:55:04.800Z,100461.03
2023-05-12T08:57:33.478Z,100466.41
2023-05-12T09:00:05.580Z,100463.78
2023-05-12T09:02:52.224Z,100469.09
2023-05-12T09:05:22.677Z,100472.59
2023-05-12T09:07:51.513Z,100465.84
2023-05-12T09:10:34.395Z,100462.97
2023-05-12T09:13:22.298Z,100469.91
2023-05-12T09:15:49.457Z,100464.75
2023-05-12T09:18:16.127Z,100462.50
2023-05-12T09:20:43.159Z,100461.00
2023-05-12T09:23:22.374Z,100456.88
2023-05-12T09:26:01.454Z,100463.13
2023-05-12T09:28:55.920Z,100458.00
2023-05-12T09:31:24.656Z,100458.94
2023-05-12T09:33:52.468Z,100458.09
2023-05-12T09:36:23.404Z,100462.75
2023-05-12T09:39:07.117Z,100455.25
2023-05-12T09:41:42.006Z,100457.72
2023-05-12T09:44:10.996Z,100455.69
2023-05-12T09:46:39.700Z,100457.31
2023-05-12T09:49:06.329Z,100452.53
2023-05-12T09:51:33.346Z,100454.16
2023-05-12T09:54:00.789Z,100451.72
2023-05-12T09:56:29.050Z,100458.56
2023-05-12T09:59:00.809Z,100454.63
2023-05-12T10:01:28.599Z,100463.50
2023-05-12T10:03:56.502Z,100462.09
2023-05-12T10:06:30.788Z,100457.44
2023-05-12T10:09:08.834Z,100456.28
2023-05-12T10:11:36.353Z,100462.22
2023-05-12T10:14:04.030Z,100469.31
2023-05-12T10:16:33.060Z,100466.00
2023-05-12T10:19:00.415Z,100462.34
2023-05-12T10:21:27.670Z,100461.59
2023-05-12T10:23:54.665Z,100465.56
2023-05-12T10:29:20.179Z,100463.34
2023-05-12T10:31:50.345Z,100462.81
2023-05-12T10:34:24.383Z,100463.06
2023-05-12T10:36:52.614Z,100463.31
2023-05-12T10:39:19.882Z,100459.25
2023-05-12T10:41:46.406Z,100460.84
2023-05-12T10:44:14.018Z,100460.31
2023-05-12T10:46:43.595Z,100473.66
2023-05-12T10:49:13.335Z,100468.38
2023-05-12T10:51:42.822Z,100463.34
2023-05-12T10:54:12.554Z,100464.59
2023-05-12T10:56:43.287Z,100467.53
2023-05-12T10:59:19.799Z,100473.06
2023-05-12T11:02:15.686Z,100465.72
2023-05-12T11:04:53.754Z,100470.69
2023-05-12T11:07:22.688Z,100467.03
2023-05-12T11:09:58.565Z,100468.88
2023-05-12T11:12:30.151Z,100477.50
2023-05-12T11:14:59.889Z,100475.84
2023-05-12T11:17:26.723Z,100473.78
2023-05-12T11:19:54.908Z,100481.25
2023-05-12T11:22:24.160Z,100477.00
2023-05-12T11:24:52.704Z,100478.28
2023-05-12T11:27:22.756Z,100485.81
2023-05-12T11:30:01.186Z,100481.50
2023-05-12T11:32:29.562Z,100483.88
2023-05-12T11:35:07.311Z,100474.66
2023-05-12T11:37:37.753Z,100487.00
2023-05-12T11:40:14.059Z,100485.22
2023-05-12T11:42:42.841Z,100486.97
2023-05-12T11:45:21.679Z,100487.22
2023-05-12T11:47:48.691Z,100490.03
2023-05-12T11:50:26.027Z,100497.25
2023-05-12T11:52:53.306Z,100489.06
2023-05-12T11:55:22.763Z,100506.06
2023-05-12T11:58:03.881Z,100503.97
2023-05-12T12:00:33.707Z,100513.16
2023-05-12T12:03:07.330Z,100512.13
2023-05-12T12:05:34.256Z,100511.00
2023-05-12T12:08:09.495Z,100513.94
2023-05-12T12:10:36.417Z,100510.78
2023-05-12T12:13:02.997Z,100511.94
2023-05-12T12:15:29.683Z,100510.03
2023-05-12T12:17:57.969Z,100504.59
2023-05-12T12:20:25.039Z,100505.44
2023-05-12T12:22:52.937Z,100501.03
2023-05-12T12:25:21.110Z,100504.66
2023-05-12T12:27:48.296Z,100508.91
2023-05-12T12:30:17.054Z,100505.06
2023-05-12T12:32:44.536Z,100507.56
2023-05-12T12:35:11.568Z,100508.81
2023-05-12T12:37:38.968Z,100508.13
2023-05-12T12:40:08.330Z,100499.97
2023-05-12T12:42:36.409Z,100507.44
2023-05-12T12:45:05.035Z,100507.72
2023-05-12T12:47:32.240Z,100501.28
2023-05-12T12:49:59.625Z,100505.63
2023-05-12T12:52:30.254Z,100504.72
2023-05-12T12:54:57.537Z,100502.59
2023-05-12T12:57:24.207Z,100509.53
2023-05-12T12:59:51.278Z,100504.84
2023-05-12T13:02:19.321Z,100512.72
2023-05-12T13:04:45.949Z,100505.03
2023-05-12T13:07:12.656Z,100508.69
2023-05-12T13:09:39.212Z,100501.81
2023-05-12T13:12:06.934Z,100506.19
2023-05-12T13:14:35.241Z,100496.13
2023-05-12T13:17:04.268Z,100494.34
2023-05-12T13:19:31.118Z,100484.88
2023-05-12T13:21:57.890Z,100499.72
2023-05-12T13:24:24.706Z,100488.09
2023-05-12T13:26:56.117Z,100497.69
2023-05-12T13:29:25.367Z,100495.63
2023-05-12T13:31:51.910Z,100498.19
2023-05-12T13:34:19.383Z,100496.41
2023-05-12T13:36:46.018Z,100495.97
2023-05-12T13:39:14.844Z,100497.44
2023-05-12T13:41:41.528Z,100502.63
2023-05-12T13:44:08.913Z,100509.06
2023-05-12T13:46:35.823Z,100502.16
2023-05-12T13:49:02.895Z,100498.72
2023-05-12T13:51:29.485Z,100492.88
2023-05-12T13:53:57.006Z,100496.25
2023-05-12T13:56:24.392Z,100508.59
2023-05-12T13:58:55.520Z,100506.44
2023-05-12T14:01:25.221Z,100505.75
2023-05-12T14:03:51.769Z,100512.31
2023-05-12T14:06:18.776Z,100510.78
2023-05-12T14:08:47.203Z,100511.88
2023-05-12T14:11:14.140Z,100507.09
2023-05-12T14:13:40.974Z,100507.72
2023-05-12T14:16:09.843Z,100505.06
2023-05-12T14:18:37.772Z,100509.47
2023-05-12T14:21:05.838Z,100499.13
2023-05-12T14:23:32.348Z,100504.16
2023-05-12T14:25:58.929Z,100505.19
2023-05-12T14:28:25.729Z,100506.69
2023-05-12T14:30:53.616Z,100509.97
2023-05-12T14:33:20.597Z,100497.88
2023-05-12T14:35:59.247Z,100505.66
2023-05-12T14:38:33.016Z,100505.63
2023-05-12T14:40:59.786Z,100503.69
2023-05-12T14:43:26.488Z,100503.03
2023-05-12T14:45:54.819Z,100499.03
2023-05-12T14:48:23.365Z,100500.03
2023-05-12T14:50:53.836Z,100502.09
2023-05-12T14:53:20.984Z,100505.47
2023-05-12T14:55:49.588Z,100499.63
2023-05-12T14:58:17.900Z,100504.69
2023-05-12T15:00:47.363Z,100505.78
2023-05-12T15:03:14.280Z,100511.81
2023-05-12T15:06:01.743Z,100521.03
2023-05-12T15:08:28.566Z,100515.09
2023-05-12T15:10:55.345Z,100520.84
2023-05-12T15:13:22.727Z,100518.91
2023-05-12T15:15:50.238Z,100515.63
2023-05-12T15:18:20.019Z,100506.28
2023-05-12T15:20:47.094Z,100513.47
2023-05-12T15:23:13.890Z,100510.03
2023-05-12T15:25:41.078Z,100517.75
2023-05-12T15:28:08.380Z,100523.56
2023-05-12T15:30:36.230Z,100512.34
2023-05-12T15:33:04.421Z,100521.63
2023-05-12T15:35:31.297Z,100522.63
2023-05-12T15:37:58.911Z,100517.59
2023-05-12T15:40:26.917Z,100527.75
2023-05-12T15:42:55.031Z,100529.13
2023-05-12T15:45:22.075Z,100523.19
2023-05-12T15:47:49.555Z,100533.81
2023-05-12T15:50:19.809Z,100533.72
2023-05-12T15:52:47.311Z,100533.00
2023-05-12T15:55:14.304Z,100530.88
2023-05-12T15:57:41.260Z,100540.31
2023-05-12T16:00:10.243Z,100532.91
2023-05-12T16:02:37.303Z,100536.03
2023-05-12T16:05:04.503Z,100540.88
2023-05-12T16:07:31.255Z,100540.59
2023-05-12T16:09:59.260Z,100542.53
2023-05-12T16:12:26.817Z,100542.56
2023-05-12T16:14:53.327Z,100544.75
2023-05-12T16:17:22.196Z,100549.34
2023-05-12T16:19:52.982Z,100541.84
2023-05-12T16:22:20.965Z,100543.13
2023-05-12T16:24:47.852Z,100543.94
2023-05-12T16:27:14.588Z,100548.81
2023-05-12T16:29:45.786Z,100550.22
2023-05-12T16:32:12.738Z,100551.59
2023-05-12T16:34:39.554Z,100546.88
2023-05-12T16:37:09.445Z,100545.28
2023-05-12T16:39:37.061Z,100561.91
2023-05-12T16:42:07.642Z,100558.88
2023-05-12T16:44:34.210Z,100562.13
2023-05-12T16:47:01.931Z,100564.66
2023-05-12T16:49:28.923Z,100561.59
2023-05-12T16:51:56.552Z,100564.78
2023-05-12T16:54:24.314Z,100568.41
2023-05-12T16:56:53.425Z,100561.50
2023-05-12T16:59:20.048Z,100560.38
2023-05-12T17:01:47.897Z,100564.91
2023-05-12T17:04:15.612Z,100560.72
2023-05-12T17:06:42.585Z,100570.13
2023-05-12T17:09:09.366Z,100570.81
2023-05-12T17:11:36.608Z,100583.22
2023-05-12T17:14:04.823Z,100575.19
2023-05-12T17:16:31.818Z,100582.91
2023-05-12T17:21:28.193Z,100577.94
2023-05-12T17:23:54.932Z,100579.78
2023-05-12T17:26:22.631Z,100582.84
2023-05-12T17:28:49.241Z,100583.69
2023-05-12T17:31:15.831Z,100576.75
2023-05-12T17:33:42.409Z,100581.09
2023-05-12T17:36:13.142Z,100579.22
2023-05-12T17:38:43.272Z,100573.91
2023-05-12T17:41:11.533Z,100586.34
2023-05-12T17:43:38.223Z,100579.16
2023-05-12T17:46:05.415Z,100576.56
2023-05-12T17:48:33.506Z,100584.47
2023-05-12T17:51:01.247Z,100592.06
2023-05-12T17:53:27.817Z,100587.38
2023-05-12T17:55:55.880Z,100583.09
2023-05-12T17:58:23.052Z,100582.34
2023-05-12T18:00:50.015Z,100587.88
2023-05-12T18:03:17.858Z,100593.28
2023-05-12T18:05:47.135Z,100600.06
2023-05-12T18:08:13.733Z,100603.78
2023-05-12T18:10:41.298Z,100600.78
2023-05-12T18:13:09.724Z,100598.84
2023-05-12T18:15:36.543Z,100605.94
2023-05-12T18:18:03.180Z,100604.94
2023-05-12T18:20:30.222Z,100603.75
2023-05-12T18:22:56.866Z,100621.81
2023-05-12T18:25:23.875Z,100618.19
2023-05-12T18:27:52.734Z,100618.50
2023-05-12T18:30:19.551Z,100617.09
2023-05-12T18:32:46.368Z,100629.28
2023-05-12T18:35:13.087Z,100628.06
2023-05-12T18:37:40.765Z,100631.78
2023-05-12T18:40:09.378Z,100636.66
2023-05-12T18:42:37.358Z,100633.56
2023-05-12T18:45:04.620Z,100634.78
2023-05-12T18:47:32.323Z,100639.72
2023-05-12T18:49:59.434Z,100641.97
2023-05-12T18:52:26.008Z,100646.28
2023-05-12T18:54:53.977Z,100652.84
2023-05-12T18:57:21.275Z,100659.06
2023-05-12T18:59:48.204Z,100658.53
2023-05-12T19:02:14.943Z,100662.56
2023-05-12T19:04:41.538Z,100656.94
2023-05-12T19:07:15.709Z,100666.13
2023-05-12T19:09:43.382Z,100666.19
2023-05-12T19:12:13.327Z,100669.31
2023-05-12T19:14:40.575Z,100664.91
2023-05-12T19:17:07.650Z,100672.53
2023-05-12T19:19:34.770Z,100674.94
2023-05-12T19:22:02.117Z,100677.69
2023-05-12T19:24:29.672Z,100671.50
2023-05-12T19:26:57.860Z,100682.63
2023-05-12T19:29:24.578Z,100692.22
2023-05-12T19:31:53.124Z,100683.59
2023-05-12T19:34:21.622Z,100686.00
2023-05-12T19:36:48.462Z,100682.00
2023-05-12T19:39:16.119Z,100688.88
2023-05-12T19:41:42.872Z,100681.56
2023-05-12T19:44:09.929Z,100677.44
2023-05-12T19:46:36.619Z,100684.03
2023-05-12T19:49:06.305Z,100684.75
2023-05-12T19:51:33.062Z,100687.88
2023-05-12T19:53:59.930Z,100680.13
2023-05-12T19:56:27.452Z,100679.38
2023-05-12T19:58:55.448Z,100682.56
2023-05-12T20:01:23.292Z,100680.66
2023-05-12T20:03:50.065Z,100684.88
2023-05-12T20:06:17.752Z,100679.53
2023-05-12T20:08:45.566Z,100681.50
2023-05-12T20:11:12.370Z,100681.84
2023-05-12T20:13:38.894Z,100684.13
2023-05-12T20:16:05.849Z,100692.22
2023-05-12T20:18:32.438Z,100699.03
2023-05-12T20:20:59.154Z,100691.78
2023-05-12T20:23:25.914Z,100696.75
2023-05-12T20:25:53.610Z,100697.13
2023-05-12T20:28:22.210Z,100701.66
2023-05-12T20:30:48.715Z,100703.22
2023-05-12T20:33:15.215Z,100698.66
2023-05-12T20:35:41.809Z,100703.97
2023-05-12T20:38:08.799Z,100703.63
2023-05-12T20:40:36.244Z,100706.69
2023-05-12T20:43:02.820Z,100703.22
2023-05-12T20:45:29.338Z,100697.13
2023-05-12T20:47:56.125Z,100695.59
2023-05-12T20:50:23.775Z,100692.47
2023-05-12T20:52:50.400Z,100694.81
2023-05-12T20:55:18.757Z,100706.22
2023-05-12T20:57:45.511Z,100700.53
2023-05-12T21:00:13.610Z,100698.91
2023-05-12T21:02:41.803Z,100702.38
2023-05-12T21:05:08.635Z,100705.13
2023-05-12T21:07:35.346Z,100710.72
2023-05-12T21:10:03.920Z,100702.25
2023-05-12T21:12:32.041Z,100707.47
2023-05-12T21:14:59.607Z,100702.84
2023-05-12T21:17:26.209Z,100700.97
2023-05-12T21:19:52.764Z,100705.09
2023-05-12T21:22:19.316Z,100704.31
2023-05-12T21:24:45.893Z,100713.13
2023-05-12T21:27:12.767Z,100711.22
2023-05-12T21:29:40.437Z,100718.00
2023-05-12T21:32:07.587Z,100711.94
2023-05-12T21:34:35.792Z,100712.28
2023-05-12T21:37:04.249Z,100722.56
2023-05-12T21:39:31.326Z,100720.97
2023-05-12T21:41:57.881Z,100724.75
2023-05-12T21:44:24.544Z,100717.13
2023-05-12T21:46:51.258Z,100718.94
2023-05-12T21:49:17.894Z,100722.25
2023-05-12T21:51:44.690Z,100719.34
2023-05-12T21:54:13.001Z,100720.84
2023-05-12T21:56:39.569Z,100723.84
2023-05-12T21:59:06.566Z,100730.34
2023-05-12T22:01:33.499Z,100726.22
2023-05-12T22:04:00.257Z,100730.31
2023-05-12T22:06:27.239Z,100723.09
2023-05-12T22:08:54.183Z,100724.72
2023-05-12T22:11:21.644Z,100730.03
2023-05-12T22:13:48.412Z,100733.13
2023-05-12T22:16:15.505Z,100737.69
2023-05-12T22:18:45.523Z,100736.53
2023-05-12T22:21:12.844Z,100744.88
2023-05-12T22:23:42.134Z,100739.50
2023-05-12T22:26:09.518Z,100743.28
2023-05-12T22:28:36.479Z,100748.06
2023-05-12T22:31:04.454Z,100743.84
2023-05-12T22:33:32.482Z,100754.66
2023-05-12T22:36:02.300Z,100758.63
2023-05-12T22:38:28.936Z,100760.50
2023-05-12T22:40:55.648Z,100757.28
2023-05-12T22:43:22.226Z,100762.31
2023-05-12T22:45:52.753Z,100765.81
2023-05-12T22:48:19.846Z,100759.78
2023-05-12T22:50:46.422Z,100762.72
2023-05-12T22:53:14.115Z,100760.19
2023-05-12T22:55:40.822Z,100758.88
2023-05-12T22:58:07.576Z,100753.13
2023-05-12T23:00:34.409Z,100772.25
2023-05-12T23:03:01.132Z,100779.69
2023-05-12T23:05:27.812Z,100782.69
2023-05-12T23:07:54.436Z,100792.06
2023-05-12T23:10:21.328Z,100800.50
2023-05-12T23:12:49.345Z,100810.09
2023-05-12T23:15:15.975Z,100809.94
2023-05-12T23:17:42.500Z,100808.63
2023-05-12T23:20:09.317Z,100791.47
2023-05-12T23:22:37.635Z,100794.03
2023-05-12T23:25:04.616Z,100767.84
2023-05-12T23:27:31.461Z,100761.56
2023-05-12T23:29:58.007Z,100750.88
2023-05-12T23:32:25.053Z,100746.66
2023-05-12T23:34:52.212Z,100732.84
2023-05-12T23:37:21.730Z,100726.34
2023-05-12T23:39:48.704Z,100715.56
2023-05-12T23:42:15.302Z,100705.97
2023-05-12T23:44:41.893Z,100693.03
2023-05-12T23:47:09.037Z,100690.72
2023-05-12T23:49:35.721Z,100688.53
2023-05-12T23:52:02.314Z,100703.75
2023-05-12T23:54:29.129Z,100738.28
2023-05-12T23:56:55.681Z,100734.34
2023-05-12T23:59:22.203Z,100722.47
